Airfield :
LOGIN :

Register | Disclaimer

   EN    FR    IT 

 










Legend :    VFR   Marginal VFR   IFR   Intensive IFR   Very Intensive IFR
Visi :
Ceiling :
>= 8 km
>= 3000ft
5 to 8 km
1000 to 3000 ft
1500m to 5 km
500 to 1000 ft
800 to 1500m
200 to 500 ft
< 800m
< 200 ft
Symbols :   Thunderstorms  Fog  Heavy snow  Heavy precipitations  Wind > 20 kt
SIGMETs :     Misc.  Thunderstorms  Icing  Turbulence  Mountain Waves  Volcanic Ashes






- Airport Elevation : 468 ft
- IATA code : GRO


LEGE - Girona Costa Brava

CURRENT METAR :
  • 190130Z 00000KT 9999 FEW020 SCT035 17/16 Q1015

EXPIRED METARs :
  • 190100Z VRB01KT 9999 FEW020 BKN035 17/16 Q1015
  • 190030Z VRB01KT 9999 FEW025 SCT070 17/16 Q1015
  • 190000Z 00000KT 9999 FEW025 SCT050 17/16 Q1015
  • 182330Z 03003KT 9999 SCT025 BKN050 17/16 Q1015
  • 182300Z 05004KT 020V080 9999 SCT025 BKN050 17/16 Q1015

TAF TAF LEGE
Valid from the 19 at 00:00 until the 20 at 00:00 UTC


182300Z 1900/1924 VRB04KT 9999 SCT020 TX26/1912Z TN16/1906Z
PROB30
TEMPO 1900/1906 3000 BR BKN010
BECMG 1910/1913 18010KT



MET'MAP, your aeronautical weather chart ! - Copyright ORBIFLY December 2007 - Disclaimer

ORBIFLY MET'MAP TEAM :

Programming & Development : Alexandra Zaïnal
Concept & original design : Baudouin d'Aumeries
Assistance for programming : Marc-Olivier Méhu
Technical & hardware support : Manuel Goepfert

Contact : metmap@orbifly.com




SOURCES & CREDITS :

   NOAA